sensor_id;sensor_type;location;lat;lon;timestamp;temperature;humidity
16814;DHT22;8524;57.650;11.926;2022-08-20T00:00:53;19.00;99.90
16814;DHT22;8524;57.650;11.926;2022-08-20T00:03:24;19.00;99.90
16814;DHT22;8524;57.650;11.926;2022-08-20T00:05:56;19.00;99.90
16814;DHT22;8524;57.650;11.926;2022-08-20T00:08:24;19.10;99.90
16814;DHT22;8524;57.650;11.926;2022-08-20T00:10:51;19.10;99.90
16814;DHT22;8524;57.650;11.926;2022-08-20T00:13:21;19.10;99.90
16814;DHT22;8524;57.650;11.926;2022-08-20T00:15:50;19.10;99.90
16814;DHT22;8524;57.650;11.926;2022-08-20T00:18:17;19.00;99.90
16814;DHT22;8524;57.650;11.926;2022-08-20T00:20:47;19.00;99.90
16814;DHT22;8524;57.650;11.926;2022-08-20T00:23:15;18.90;99.90
16814;DHT22;8524;57.650;11.926;2022-08-20T00:25:42;18.90;99.90
16814;DHT22;8524;57.650;11.926;2022-08-20T00:28:10;18.90;99.90
16814;DHT22;8524;57.650;11.926;2022-08-20T00:30:40;18.80;99.90
16814;DHT22;8524;57.650;11.926;2022-08-20T00:33:10;18.80;99.90
16814;DHT22;8524;57.650;11.926;2022-08-20T00:35:40;18.80;99.90
16814;DHT22;8524;57.650;11.926;2022-08-20T00:38:08;18.80;99.90
16814;DHT22;8524;57.650;11.926;2022-08-20T00:40:38;18.70;99.90
16814;DHT22;8524;57.650;11.926;2022-08-20T00:43:22;18.70;99.90
16814;DHT22;8524;57.650;11.926;2022-08-20T00:45:50;18.70;99.90
16814;DHT22;8524;57.650;11.926;2022-08-20T00:48:22;18.70;99.90
16814;DHT22;8524;57.650;11.926;2022-08-20T00:50:49;18.70;99.90
16814;DHT22;8524;57.650;11.926;2022-08-20T00:53:16;18.70;99.90
16814;DHT22;8524;57.650;11.926;2022-08-20T00:55:47;18.70;99.90
16814;DHT22;8524;57.650;11.926;2022-08-20T00:58:14;18.70;99.90
16814;DHT22;8524;57.650;11.926;2022-08-20T01:00:43;18.70;99.90
16814;DHT22;8524;57.650;11.926;2022-08-20T01:03:13;18.70;99.90
16814;DHT22;8524;57.650;11.926;2022-08-20T01:05:43;18.70;99.90
16814;DHT22;8524;57.650;11.926;2022-08-20T01:08:11;18.70;99.90
16814;DHT22;8524;57.650;11.926;2022-08-20T01:10:41;18.70;99.90
16814;DHT22;8524;57.650;11.926;2022-08-20T01:13:13;18.70;99.90
16814;DHT22;8524;57.650;11.926;2022-08-20T01:15:44;18.70;99.90
16814;DHT22;8524;57.650;11.926;2022-08-20T01:18:15;18.70;99.90
16814;DHT22;8524;57.650;11.926;2022-08-20T01:20:49;18.70;99.90
16814;DHT22;8524;57.650;11.926;2022-08-20T01:23:21;18.60;99.90
16814;DHT22;8524;57.650;11.926;2022-08-20T01:25:56;18.60;99.90
16814;DHT22;8524;57.650;11.926;2022-08-20T01:28:29;18.60;99.90
16814;DHT22;8524;57.650;11.926;2022-08-20T01:30:57;18.60;99.90
16814;DHT22;8524;57.650;11.926;2022-08-20T01:33:24;18.50;99.90
16814;DHT22;8524;57.650;11.926;2022-08-20T01:35:52;18.50;99.90
16814;DHT22;8524;57.650;11.926;2022-08-20T01:38:19;18.60;99.90
16814;DHT22;8524;57.650;11.926;2022-08-20T01:41:11;18.50;99.90
16814;DHT22;8524;57.650;11.926;2022-08-20T01:43:43;18.50;99.90
16814;DHT22;8524;57.650;11.926;2022-08-20T01:46:11;18.60;99.90
16814;DHT22;8524;57.650;11.926;2022-08-20T01:48:40;18.50;99.90
16814;DHT22;8524;57.650;11.926;2022-08-20T01:51:11;18.60;99.90
16814;DHT22;8524;57.650;11.926;2022-08-20T01:53:41;18.60;99.90
16814;DHT22;8524;57.650;11.926;2022-08-20T01:56:12;18.60;99.90
16814;DHT22;8524;57.650;11.926;2022-08-20T01:58:43;18.60;99.90
16814;DHT22;8524;57.650;11.926;2022-08-20T02:01:19;18.60;99.90
16814;DHT22;8524;57.650;11.926;2022-08-20T02:03:46;18.60;99.90
16814;DHT22;8524;57.650;11.926;2022-08-20T02:06:13;18.60;99.90
16814;DHT22;8524;57.650;11.926;2022-08-20T02:08:40;18.50;99.90
16814;DHT22;8524;57.650;11.926;2022-08-20T02:11:08;18.40;99.90
16814;DHT22;8524;57.650;11.926;2022-08-20T02:13:36;18.40;99.90
16814;DHT22;8524;57.650;11.926;2022-08-20T02:16:05;18.40;99.90
16814;DHT22;8524;57.650;11.926;2022-08-20T02:18:32;18.30;99.90
16814;DHT22;8524;57.650;11.926;2022-08-20T02:20:59;18.30;99.90
16814;DHT22;8524;57.650;11.926;2022-08-20T02:23:26;18.20;99.90
16814;DHT22;8524;57.650;11.926;2022-08-20T02:25:53;18.20;99.90
16814;DHT22;8524;57.650;11.926;2022-08-20T02:28:20;18.10;99.90
16814;DHT22;8524;57.650;11.926;2022-08-20T02:30:51;18.10;99.90
16814;DHT22;8524;57.650;11.926;2022-08-20T02:33:21;18.10;99.90
16814;DHT22;8524;57.650;11.926;2022-08-20T02:35:49;18.10;99.90
16814;DHT22;8524;57.650;11.926;2022-08-20T02:38:16;18.10;99.90
16814;DHT22;8524;57.650;11.926;2022-08-20T02:40:45;18.10;99.90
16814;DHT22;8524;57.650;11.926;2022-08-20T02:43:14;18.10;99.90
16814;DHT22;8524;57.650;11.926;2022-08-20T02:45:42;18.00;99.90
16814;DHT22;8524;57.650;11.926;2022-08-20T02:48:12;17.90;99.90
16814;DHT22;8524;57.650;11.926;2022-08-20T02:50:46;17.90;99.90
16814;DHT22;8524;57.650;11.926;2022-08-20T02:53:14;17.80;99.90
16814;DHT22;8524;57.650;11.926;2022-08-20T02:55:41;17.80;99.90
16814;DHT22;8524;57.650;11.926;2022-08-20T02:58:09;17.80;99.90
16814;DHT22;8524;57.650;11.926;2022-08-20T03:00:37;17.70;99.90
16814;DHT22;8524;57.650;11.926;2022-08-20T03:03:04;17.70;99.90
16814;DHT22;8524;57.650;11.926;2022-08-20T03:05:33;17.60;99.90
16814;DHT22;8524;57.650;11.926;2022-08-20T03:08:00;17.60;99.90
16814;DHT22;8524;57.650;11.926;2022-08-20T03:10:30;17.50;99.90
16814;DHT22;8524;57.650;11.926;2022-08-20T03:12:58;17.50;99.90
16814;DHT22;8524;57.650;11.926;2022-08-20T03:15:25;17.40;99.90
16814;DHT22;8524;57.650;11.926;2022-08-20T03:17:52;17.40;99.90
16814;DHT22;8524;57.650;11.926;2022-08-20T03:20:20;17.40;99.90
16814;DHT22;8524;57.650;11.926;2022-08-20T03:22:49;17.40;99.90
16814;DHT22;8524;57.650;11.926;2022-08-20T03:25:16;17.30;99.90
16814;DHT22;8524;57.650;11.926;2022-08-20T03:27:44;17.20;99.90
16814;DHT22;8524;57.650;11.926;2022-08-20T03:30:13;17.20;99.90
16814;DHT22;8524;57.650;11.926;2022-08-20T03:32:41;17.20;99.90
16814;DHT22;8524;57.650;11.926;2022-08-20T03:35:10;17.10;99.90
16814;DHT22;8524;57.650;11.926;2022-08-20T03:37:38;16.90;99.90
16814;DHT22;8524;57.650;11.926;2022-08-20T03:40:10;16.90;99.90
16814;DHT22;8524;57.650;11.926;2022-08-20T03:42:37;16.90;99.90
16814;DHT22;8524;57.650;11.926;2022-08-20T03:45:06;16.80;99.90
16814;DHT22;8524;57.650;11.926;2022-08-20T03:47:33;16.80;99.90
16814;DHT22;8524;57.650;11.926;2022-08-20T03:50:00;16.80;99.90
16814;DHT22;8524;57.650;11.926;2022-08-20T03:52:28;16.70;99.90
16814;DHT22;8524;57.650;11.926;2022-08-20T03:54:55;16.70;99.90
16814;DHT22;8524;57.650;11.926;2022-08-20T03:57:23;16.70;99.90
16814;DHT22;8524;57.650;11.926;2022-08-20T03:59:52;16.70;99.90
16814;DHT22;8524;57.650;11.926;2022-08-20T04:02:19;16.70;99.90
16814;DHT22;8524;57.650;11.926;2022-08-20T04:04:46;16.70;99.90
16814;DHT22;8524;57.650;11.926;2022-08-20T04:07:16;16.60;99.90
16814;DHT22;8524;57.650;11.926;2022-08-20T04:09:43;16.70;99.90
16814;DHT22;8524;57.650;11.926;2022-08-20T04:12:10;16.70;99.90
16814;DHT22;8524;57.650;11.926;2022-08-20T04:14:39;16.70;99.90
16814;DHT22;8524;57.650;11.926;2022-08-20T04:17:07;16.60;99.90
16814;DHT22;8524;57.650;11.926;2022-08-20T04:19:35;16.60;99.90
16814;DHT22;8524;57.650;11.926;2022-08-20T04:22:04;16.70;99.90
16814;DHT22;8524;57.650;11.926;2022-08-20T04:24:32;16.70;99.90
16814;DHT22;8524;57.650;11.926;2022-08-20T04:26:59;16.60;99.90
16814;DHT22;8524;57.650;11.926;2022-08-20T04:29:28;16.60;99.90
16814;DHT22;8524;57.650;11.926;2022-08-20T04:31:56;16.70;99.90
16814;DHT22;8524;57.650;11.926;2022-08-20T04:34:25;16.70;99.90
16814;DHT22;8524;57.650;11.926;2022-08-20T04:36:53;16.70;99.90
16814;DHT22;8524;57.650;11.926;2022-08-20T04:39:20;16.70;99.90
16814;DHT22;8524;57.650;11.926;2022-08-20T04:41:48;16.70;99.90
16814;DHT22;8524;57.650;11.926;2022-08-20T04:44:15;16.70;99.90
16814;DHT22;8524;57.650;11.926;2022-08-20T04:46:42;16.70;99.90
16814;DHT22;8524;57.650;11.926;2022-08-20T04:49:11;16.70;99.90
16814;DHT22;8524;57.650;11.926;2022-08-20T04:51:37;16.70;99.90
16814;DHT22;8524;57.650;11.926;2022-08-20T04:54:05;16.70;99.90
16814;DHT22;8524;57.650;11.926;2022-08-20T04:56:33;16.70;99.90
16814;DHT22;8524;57.650;11.926;2022-08-20T04:59:04;16.70;99.90
16814;DHT22;8524;57.650;11.926;2022-08-20T05:01:31;16.70;99.90
16814;DHT22;8524;57.650;11.926;2022-08-20T05:03:59;16.80;99.90
16814;DHT22;8524;57.650;11.926;2022-08-20T05:06:30;16.90;99.90
16814;DHT22;8524;57.650;11.926;2022-08-20T05:08:58;17.00;99.90
16814;DHT22;8524;57.650;11.926;2022-08-20T05:11:26;17.10;99.90
16814;DHT22;8524;57.650;11.926;2022-08-20T05:13:53;17.20;99.90
16814;DHT22;8524;57.650;11.926;2022-08-20T05:16:20;17.30;99.90
16814;DHT22;8524;57.650;11.926;2022-08-20T05:18:49;17.40;99.90
16814;DHT22;8524;57.650;11.926;2022-08-20T05:21:17;17.50;99.90
16814;DHT22;8524;57.650;11.926;2022-08-20T05:23:46;17.50;99.90
16814;DHT22;8524;57.650;11.926;2022-08-20T05:26:13;17.70;99.90
16814;DHT22;8524;57.650;11.926;2022-08-20T05:28:40;17.70;99.90
16814;DHT22;8524;57.650;11.926;2022-08-20T05:31:07;17.80;99.90
16814;DHT22;8524;57.650;11.926;2022-08-20T05:33:36;17.90;99.90
16814;DHT22;8524;57.650;11.926;2022-08-20T05:36:04;17.90;99.90
16814;DHT22;8524;57.650;11.926;2022-08-20T05:38:33;18.10;99.90
16814;DHT22;8524;57.650;11.926;2022-08-20T05:41:02;18.20;99.90
16814;DHT22;8524;57.650;11.926;2022-08-20T05:43:29;18.30;99.90
16814;DHT22;8524;57.650;11.926;2022-08-20T05:45:58;18.30;99.90
16814;DHT22;8524;57.650;11.926;2022-08-20T05:48:26;18.40;99.90
16814;DHT22;8524;57.650;11.926;2022-08-20T05:50:53;18.50;99.90
16814;DHT22;8524;57.650;11.926;2022-08-20T05:53:24;18.60;99.90
16814;DHT22;8524;57.650;11.926;2022-08-20T05:55:51;18.70;99.90
16814;DHT22;8524;57.650;11.926;2022-08-20T05:58:22;18.80;99.90
16814;DHT22;8524;57.650;11.926;2022-08-20T06:00:50;18.90;99.90
16814;DHT22;8524;57.650;11.926;2022-08-20T06:03:18;19.00;99.90
16814;DHT22;8524;57.650;11.926;2022-08-20T06:06:03;19.00;99.90
16814;DHT22;8524;57.650;11.926;2022-08-20T06:08:31;19.10;99.90
16814;DHT22;8524;57.650;11.926;2022-08-20T06:10:58;19.20;99.90
16814;DHT22;8524;57.650;11.926;2022-08-20T06:13:26;19.20;99.90
16814;DHT22;8524;57.650;11.926;2022-08-20T06:15:53;19.30;99.90
16814;DHT22;8524;57.650;11.926;2022-08-20T06:18:20;19.30;99.90
16814;DHT22;8524;57.650;11.926;2022-08-20T06:20:47;19.30;99.90
16814;DHT22;8524;57.650;11.926;2022-08-20T06:23:15;19.30;99.90
16814;DHT22;8524;57.650;11.926;2022-08-20T06:25:42;19.30;99.90
16814;DHT22;8524;57.650;11.926;2022-08-20T06:28:09;19.20;99.90
16814;DHT22;8524;57.650;11.926;2022-08-20T06:30:37;19.10;99.90
16814;DHT22;8524;57.650;11.926;2022-08-20T06:33:04;19.20;99.90
16814;DHT22;8524;57.650;11.926;2022-08-20T06:35:31;19.20;99.90
16814;DHT22;8524;57.650;11.926;2022-08-20T06:37:58;19.10;99.90
16814;DHT22;8524;57.650;11.926;2022-08-20T06:40:27;19.20;99.90
16814;DHT22;8524;57.650;11.926;2022-08-20T06:42:55;19.20;99.90
16814;DHT22;8524;57.650;11.926;2022-08-20T06:45:24;19.30;99.90
16814;DHT22;8524;57.650;11.926;2022-08-20T06:47:55;19.50;99.90
16814;DHT22;8524;57.650;11.926;2022-08-20T06:50:26;19.70;99.90
16814;DHT22;8524;57.650;11.926;2022-08-20T06:52:54;19.90;99.90
16814;DHT22;8524;57.650;11.926;2022-08-20T06:55:21;20.00;99.90
16814;DHT22;8524;57.650;11.926;2022-08-20T06:57:56;19.90;99.90
16814;DHT22;8524;57.650;11.926;2022-08-20T07:00:24;19.80;99.90
16814;DHT22;8524;57.650;11.926;2022-08-20T07:02:53;19.70;99.90
16814;DHT22;8524;57.650;11.926;2022-08-20T07:05:20;19.80;99.90
16814;DHT22;8524;57.650;11.926;2022-08-20T07:07:48;19.80;99.90
16814;DHT22;8524;57.650;11.926;2022-08-20T07:10:17;19.90;99.90
16814;DHT22;8524;57.650;11.926;2022-08-20T07:12:45;20.10;99.90
16814;DHT22;8524;57.650;11.926;2022-08-20T07:15:15;20.30;99.90
16814;DHT22;8524;57.650;11.926;2022-08-20T07:17:48;20.60;99.90
16814;DHT22;8524;57.650;11.926;2022-08-20T07:20:16;20.80;99.90
16814;DHT22;8524;57.650;11.926;2022-08-20T07:22:44;20.90;99.90
16814;DHT22;8524;57.650;11.926;2022-08-20T07:25:14;20.90;99.90
16814;DHT22;8524;57.650;11.926;2022-08-20T07:27:42;20.90;99.90
16814;DHT22;8524;57.650;11.926;2022-08-20T07:30:14;20.70;99.90
16814;DHT22;8524;57.650;11.926;2022-08-20T07:32:59;20.60;99.90
16814;DHT22;8524;57.650;11.926;2022-08-20T07:35:27;20.60;99.90
16814;DHT22;8524;57.650;11.926;2022-08-20T07:37:55;20.50;99.90
16814;DHT22;8524;57.650;11.926;2022-08-20T07:40:23;20.50;99.90
16814;DHT22;8524;57.650;11.926;2022-08-20T07:42:52;20.50;99.90
16814;DHT22;8524;57.650;11.926;2022-08-20T07:45:19;20.40;99.90
16814;DHT22;8524;57.650;11.926;2022-08-20T07:47:47;20.30;99.90
16814;DHT22;8524;57.650;11.926;2022-08-20T07:50:17;20.30;99.90
16814;DHT22;8524;57.650;11.926;2022-08-20T07:52:46;20.40;99.90
16814;DHT22;8524;57.650;11.926;2022-08-20T07:55:15;20.30;99.90
16814;DHT22;8524;57.650;11.926;2022-08-20T07:57:42;20.40;99.90
16814;DHT22;8524;57.650;11.926;2022-08-20T08:00:13;20.40;99.90
16814;DHT22;8524;57.650;11.926;2022-08-20T08:02:40;20.30;99.90
16814;DHT22;8524;57.650;11.926;2022-08-20T08:05:08;20.40;99.90
16814;DHT22;8524;57.650;11.926;2022-08-20T08:07:36;20.40;99.90
16814;DHT22;8524;57.650;11.926;2022-08-20T08:10:08;20.30;99.90
16814;DHT22;8524;57.650;11.926;2022-08-20T08:12:37;20.30;99.90
16814;DHT22;8524;57.650;11.926;2022-08-20T08:15:10;20.20;99.90
16814;DHT22;8524;57.650;11.926;2022-08-20T08:17:38;20.20;99.90
16814;DHT22;8524;57.650;11.926;2022-08-20T08:20:07;20.40;99.90
16814;DHT22;8524;57.650;11.926;2022-08-20T08:22:37;20.50;99.90
16814;DHT22;8524;57.650;11.926;2022-08-20T08:25:09;20.50;99.90
16814;DHT22;8524;57.650;11.926;2022-08-20T08:27:37;20.60;99.90
16814;DHT22;8524;57.650;11.926;2022-08-20T08:30:05;20.50;99.90
16814;DHT22;8524;57.650;11.926;2022-08-20T08:32:34;20.80;99.90
16814;DHT22;8524;57.650;11.926;2022-08-20T08:35:03;21.10;99.90
16814;DHT22;8524;57.650;11.926;2022-08-20T08:37:30;21.30;99.90
16814;DHT22;8524;57.650;11.926;2022-08-20T08:39:57;21.20;99.90
16814;DHT22;8524;57.650;11.926;2022-08-20T08:42:34;21.20;99.90
16814;DHT22;8524;57.650;11.926;2022-08-20T08:45:05;21.30;99.90
16814;DHT22;8524;57.650;11.926;2022-08-20T08:47:37;21.20;99.90
16814;DHT22;8524;57.650;11.926;2022-08-20T08:50:08;21.30;99.90
16814;DHT22;8524;57.650;11.926;2022-08-20T08:52:38;21.50;99.90
16814;DHT22;8524;57.650;11.926;2022-08-20T08:55:10;21.70;99.90
16814;DHT22;8524;57.650;11.926;2022-08-20T08:57:41;21.80;99.90
16814;DHT22;8524;57.650;11.926;2022-08-20T09:00:12;22.00;99.90
16814;DHT22;8524;57.650;11.926;2022-08-20T09:02:52;21.90;99.90
16814;DHT22;8524;57.650;11.926;2022-08-20T09:05:22;21.40;99.90
16814;DHT22;8524;57.650;11.926;2022-08-20T09:07:51;21.20;99.90
16814;DHT22;8524;57.650;11.926;2022-08-20T09:10:19;21.30;99.90
16814;DHT22;8524;57.650;11.926;2022-08-20T09:12:47;21.50;99.90
16814;DHT22;8524;57.650;11.926;2022-08-20T09:15:14;21.60;99.90
16814;DHT22;8524;57.650;11.926;2022-08-20T09:17:42;21.80;99.90
16814;DHT22;8524;57.650;11.926;2022-08-20T09:20:09;21.50;99.90
16814;DHT22;8524;57.650;11.926;2022-08-20T09:22:36;21.50;99.90
16814;DHT22;8524;57.650;11.926;2022-08-20T09:25:04;21.50;99.90
16814;DHT22;8524;57.650;11.926;2022-08-20T09:27:31;21.30;99.90
16814;DHT22;8524;57.650;11.926;2022-08-20T09:29:59;21.40;99.90
16814;DHT22;8524;57.650;11.926;2022-08-20T09:32:26;21.30;99.90
16814;DHT22;8524;57.650;11.926;2022-08-20T09:34:54;21.60;99.90
16814;DHT22;8524;57.650;11.926;2022-08-20T09:37:22;21.50;99.90
16814;DHT22;8524;57.650;11.926;2022-08-20T09:39:50;21.40;99.90
16814;DHT22;8524;57.650;11.926;2022-08-20T09:42:18;21.40;99.90
16814;DHT22;8524;57.650;11.926;2022-08-20T09:44:46;21.50;99.90
16814;DHT22;8524;57.650;11.926;2022-08-20T09:47:14;21.60;99.90
16814;DHT22;8524;57.650;11.926;2022-08-20T09:49:42;21.40;99.90
16814;DHT22;8524;57.650;11.926;2022-08-20T09:52:12;21.40;99.90
16814;DHT22;8524;57.650;11.926;2022-08-20T09:54:43;21.60;99.90
16814;DHT22;8524;57.650;11.926;2022-08-20T09:57:10;21.90;99.90
16814;DHT22;8524;57.650;11.926;2022-08-20T09:59:38;22.10;99.90
16814;DHT22;8524;57.650;11.926;2022-08-20T10:02:05;21.90;99.90
16814;DHT22;8524;57.650;11.926;2022-08-20T10:04:33;21.80;99.90
16814;DHT22;8524;57.650;11.926;2022-08-20T10:07:00;21.80;99.90
16814;DHT22;8524;57.650;11.926;2022-08-20T10:09:27;21.50;99.90
16814;DHT22;8524;57.650;11.926;2022-08-20T10:11:54;21.90;99.90
16814;DHT22;8524;57.650;11.926;2022-08-20T10:14:21;22.00;99.90
16814;DHT22;8524;57.650;11.926;2022-08-20T10:16:54;22.20;99.90
16814;DHT22;8524;57.650;11.926;2022-08-20T10:19:22;22.20;99.90
16814;DHT22;8524;57.650;11.926;2022-08-20T10:21:51;22.20;99.90
16814;DHT22;8524;57.650;11.926;2022-08-20T10:24:18;22.30;99.90
16814;DHT22;8524;57.650;11.926;2022-08-20T10:26:46;22.00;99.90
16814;DHT22;8524;57.650;11.926;2022-08-20T10:29:14;21.90;99.90
16814;DHT22;8524;57.650;11.926;2022-08-20T10:31:41;21.40;99.90
16814;DHT22;8524;57.650;11.926;2022-08-20T10:34:08;21.50;99.90
16814;DHT22;8524;57.650;11.926;2022-08-20T10:36:35;21.70;99.90
16814;DHT22;8524;57.650;11.926;2022-08-20T10:39:06;21.60;99.90
16814;DHT22;8524;57.650;11.926;2022-08-20T10:41:33;21.60;99.90
16814;DHT22;8524;57.650;11.926;2022-08-20T10:44:00;21.70;99.90
16814;DHT22;8524;57.650;11.926;2022-08-20T10:46:27;21.50;99.90
16814;DHT22;8524;57.650;11.926;2022-08-20T10:48:54;21.60;99.90
16814;DHT22;8524;57.650;11.926;2022-08-20T10:51:21;21.50;99.90
16814;DHT22;8524;57.650;11.926;2022-08-20T10:53:48;21.40;99.90
16814;DHT22;8524;57.650;11.926;2022-08-20T10:56:17;21.50;99.90
16814;DHT22;8524;57.650;11.926;2022-08-20T10:58:43;21.50;99.90
16814;DHT22;8524;57.650;11.926;2022-08-20T11:01:10;21.50;99.90
16814;DHT22;8524;57.650;11.926;2022-08-20T11:03:37;21.70;99.90
16814;DHT22;8524;57.650;11.926;2022-08-20T11:06:05;22.00;99.90
16814;DHT22;8524;57.650;11.926;2022-08-20T11:08:31;22.30;99.90
16814;DHT22;8524;57.650;11.926;2022-08-20T11:10:58;22.40;99.90
16814;DHT22;8524;57.650;11.926;2022-08-20T11:13:27;22.60;99.90
16814;DHT22;8524;57.650;11.926;2022-08-20T11:15:54;22.60;99.90
16814;DHT22;8524;57.650;11.926;2022-08-20T11:18:21;22.70;99.90
16814;DHT22;8524;57.650;11.926;2022-08-20T11:20:48;22.80;99.90
16814;DHT22;8524;57.650;11.926;2022-08-20T11:23:15;22.80;99.90
16814;DHT22;8524;57.650;11.926;2022-08-20T11:25:42;22.70;99.90
16814;DHT22;8524;57.650;11.926;2022-08-20T11:28:09;23.00;99.90
16814;DHT22;8524;57.650;11.926;2022-08-20T11:30:38;22.50;99.90
16814;DHT22;8524;57.650;11.926;2022-08-20T11:33:05;22.20;99.90
16814;DHT22;8524;57.650;11.926;2022-08-20T11:35:34;22.30;99.90
16814;DHT22;8524;57.650;11.926;2022-08-20T11:38:02;22.20;99.90
16814;DHT22;8524;57.650;11.926;2022-08-20T11:40:29;22.40;99.90
16814;DHT22;8524;57.650;11.926;2022-08-20T11:42:57;22.20;99.90
16814;DHT22;8524;57.650;11.926;2022-08-20T11:45:24;22.30;99.90
16814;DHT22;8524;57.650;11.926;2022-08-20T11:47:52;22.90;99.90
16814;DHT22;8524;57.650;11.926;2022-08-20T11:50:20;23.10;99.90
16814;DHT22;8524;57.650;11.926;2022-08-20T11:52:47;22.90;99.90
16814;DHT22;8524;57.650;11.926;2022-08-20T11:55:16;22.90;99.90
16814;DHT22;8524;57.650;11.926;2022-08-20T11:57:45;22.70;99.90
16814;DHT22;8524;57.650;11.926;2022-08-20T12:00:15;22.80;99.90
16814;DHT22;8524;57.650;11.926;2022-08-20T12:02:43;22.60;99.90
16814;DHT22;8524;57.650;11.926;2022-08-20T12:05:11;22.40;99.90
16814;DHT22;8524;57.650;11.926;2022-08-20T12:07:39;22.20;99.90
16814;DHT22;8524;57.650;11.926;2022-08-20T12:10:07;22.60;99.90
16814;DHT22;8524;57.650;11.926;2022-08-20T12:12:36;22.80;99.90
16814;DHT22;8524;57.650;11.926;2022-08-20T12:15:06;22.80;99.90
16814;DHT22;8524;57.650;11.926;2022-08-20T12:17:34;22.50;99.90
16814;DHT22;8524;57.650;11.926;2022-08-20T12:20:06;22.60;99.90
16814;DHT22;8524;57.650;11.926;2022-08-20T12:22:35;22.50;99.90
16814;DHT22;8524;57.650;11.926;2022-08-20T12:25:03;22.80;99.90
16814;DHT22;8524;57.650;11.926;2022-08-20T12:27:32;22.80;99.90
16814;DHT22;8524;57.650;11.926;2022-08-20T12:30:01;22.70;99.90
16814;DHT22;8524;57.650;11.926;2022-08-20T12:32:30;22.70;99.90
16814;DHT22;8524;57.650;11.926;2022-08-20T12:34:57;22.70;99.90
16814;DHT22;8524;57.650;11.926;2022-08-20T12:37:26;22.90;99.90
16814;DHT22;8524;57.650;11.926;2022-08-20T12:39:57;22.90;99.90
16814;DHT22;8524;57.650;11.926;2022-08-20T12:42:24;22.80;99.90
16814;DHT22;8524;57.650;11.926;2022-08-20T12:44:51;22.90;99.90
16814;DHT22;8524;57.650;11.926;2022-08-20T12:47:21;22.60;99.90
16814;DHT22;8524;57.650;11.926;2022-08-20T12:49:51;22.80;99.90
16814;DHT22;8524;57.650;11.926;2022-08-20T12:52:19;22.80;99.90
16814;DHT22;8524;57.650;11.926;2022-08-20T12:54:47;22.60;99.90
16814;DHT22;8524;57.650;11.926;2022-08-20T12:57:21;22.50;99.90
16814;DHT22;8524;57.650;11.926;2022-08-20T12:59:49;22.60;99.90
16814;DHT22;8524;57.650;11.926;2022-08-20T13:02:16;22.60;99.90
16814;DHT22;8524;57.650;11.926;2022-08-20T13:04:43;22.50;99.90
16814;DHT22;8524;57.650;11.926;2022-08-20T13:07:11;22.70;99.90
16814;DHT22;8524;57.650;11.926;2022-08-20T13:09:38;22.80;99.90
16814;DHT22;8524;57.650;11.926;2022-08-20T13:12:05;22.70;99.90
16814;DHT22;8524;57.650;11.926;2022-08-20T13:14:34;22.70;99.90
16814;DHT22;8524;57.650;11.926;2022-08-20T13:17:02;22.90;99.90
16814;DHT22;8524;57.650;11.926;2022-08-20T13:19:31;22.90;99.90
16814;DHT22;8524;57.650;11.926;2022-08-20T13:21:58;23.20;99.90
16814;DHT22;8524;57.650;11.926;2022-08-20T13:24:25;23.20;99.90
16814;DHT22;8524;57.650;11.926;2022-08-20T13:26:52;22.90;99.90
16814;DHT22;8524;57.650;11.926;2022-08-20T13:29:19;22.70;99.90
16814;DHT22;8524;57.650;11.926;2022-08-20T13:31:48;22.70;99.90
16814;DHT22;8524;57.650;11.926;2022-08-20T13:34:15;22.60;99.90
16814;DHT22;8524;57.650;11.926;2022-08-20T13:36:42;22.60;99.90
16814;DHT22;8524;57.650;11.926;2022-08-20T13:39:09;22.60;99.90
16814;DHT22;8524;57.650;11.926;2022-08-20T13:41:36;22.40;99.90
16814;DHT22;8524;57.650;11.926;2022-08-20T13:44:03;22.50;99.90
16814;DHT22;8524;57.650;11.926;2022-08-20T13:46:30;22.50;99.90
16814;DHT22;8524;57.650;11.926;2022-08-20T13:48:58;22.30;99.90
16814;DHT22;8524;57.650;11.926;2022-08-20T13:51:25;22.10;99.90
16814;DHT22;8524;57.650;11.926;2022-08-20T13:53:52;22.00;99.90
16814;DHT22;8524;57.650;11.926;2022-08-20T13:56:19;22.00;99.90
16814;DHT22;8524;57.650;11.926;2022-08-20T13:58:46;22.20;99.90
16814;DHT22;8524;57.650;11.926;2022-08-20T14:01:14;22.60;99.90
16814;DHT22;8524;57.650;11.926;2022-08-20T14:03:41;22.50;99.90
16814;DHT22;8524;57.650;11.926;2022-08-20T14:06:09;22.50;99.90
16814;DHT22;8524;57.650;11.926;2022-08-20T14:08:36;22.40;99.90
16814;DHT22;8524;57.650;11.926;2022-08-20T14:11:03;22.40;99.90
16814;DHT22;8524;57.650;11.926;2022-08-20T14:13:30;22.50;99.90
16814;DHT22;8524;57.650;11.926;2022-08-20T14:15:58;22.40;99.90
16814;DHT22;8524;57.650;11.926;2022-08-20T14:18:25;22.50;99.90
16814;DHT22;8524;57.650;11.926;2022-08-20T14:20:52;22.50;99.90
16814;DHT22;8524;57.650;11.926;2022-08-20T14:23:20;22.80;99.90
16814;DHT22;8524;57.650;11.926;2022-08-20T14:25:48;22.90;99.90
16814;DHT22;8524;57.650;11.926;2022-08-20T14:28:17;22.70;99.90
16814;DHT22;8524;57.650;11.926;2022-08-20T14:30:45;22.50;99.90
16814;DHT22;8524;57.650;11.926;2022-08-20T14:33:12;22.40;99.90
16814;DHT22;8524;57.650;11.926;2022-08-20T14:35:40;22.10;99.90
16814;DHT22;8524;57.650;11.926;2022-08-20T14:38:07;22.00;99.90
16814;DHT22;8524;57.650;11.926;2022-08-20T14:40:35;21.80;99.90
16814;DHT22;8524;57.650;11.926;2022-08-20T14:43:02;21.90;99.90
16814;DHT22;8524;57.650;11.926;2022-08-20T14:45:29;22.10;99.90
16814;DHT22;8524;57.650;11.926;2022-08-20T14:47:57;22.10;99.90
16814;DHT22;8524;57.650;11.926;2022-08-20T14:50:27;22.10;99.90
16814;DHT22;8524;57.650;11.926;2022-08-20T14:52:55;22.00;99.90
16814;DHT22;8524;57.650;11.926;2022-08-20T14:55:24;22.00;99.90
16814;DHT22;8524;57.650;11.926;2022-08-20T14:57:52;21.90;99.90
16814;DHT22;8524;57.650;11.926;2022-08-20T15:00:22;22.20;99.90
16814;DHT22;8524;57.650;11.926;2022-08-20T15:02:50;22.20;99.90
16814;DHT22;8524;57.650;11.926;2022-08-20T15:05:18;22.10;99.90
16814;DHT22;8524;57.650;11.926;2022-08-20T15:07:47;22.10;99.90
16814;DHT22;8524;57.650;11.926;2022-08-20T15:10:16;22.10;99.90
16814;DHT22;8524;57.650;11.926;2022-08-20T15:12:44;22.30;99.90
16814;DHT22;8524;57.650;11.926;2022-08-20T15:15:13;22.40;99.90
16814;DHT22;8524;57.650;11.926;2022-08-20T15:17:43;22.20;99.90
16814;DHT22;8524;57.650;11.926;2022-08-20T15:20:12;22.20;99.90
16814;DHT22;8524;57.650;11.926;2022-08-20T15:22:39;22.20;99.90
16814;DHT22;8524;57.650;11.926;2022-08-20T15:25:11;22.20;99.90
16814;DHT22;8524;57.650;11.926;2022-08-20T15:27:39;22.30;99.90
16814;DHT22;8524;57.650;11.926;2022-08-20T15:30:11;22.10;99.90
16814;DHT22;8524;57.650;11.926;2022-08-20T15:32:39;22.10;99.90
16814;DHT22;8524;57.650;11.926;2022-08-20T15:35:07;22.20;99.90
16814;DHT22;8524;57.650;11.926;2022-08-20T15:37:39;22.10;99.90